• Join FlightAware (Why Join?)
  • Login
  • US Flag 
04:26PM EDT


 

Airport Tracker/Info


-or-


 

Live Flight TrackerFlight Track Log ✈ ADR705 ✈ 11-Sep-2013 ✈ LATI / TIA - LJLJ / LJU

Flight Track Log - Related Links

Times and Time Zones

All times are in EDT time to prevent confusion due to time zone crossing. See the ADR705 flight status page for this flight to view local times or setup timezone preferences in your user account.

Time Position Orientation Groundspeed Altitude Reporting Facility
EDT Latitude Longitude Course Direction KTS MPH feet Rate Location/Type
09:39AM 41.7428 19.3948 324° Northwest  Level Estimated
09:40AM 41.8247 19.3128 323° Northwest  Level Estimated
09:41AM 41.9065 19.2306 323° Northwest  Level Estimated
09:42AM 41.9882 19.1482 323° Northwest  Level Estimated
09:43AM 42.0699 19.0656 323° Northwest  Level Estimated
09:44AM 42.1516 18.9828 323° Northwest  Level Estimated
09:45AM 42.2331 18.8998 323° Northwest  Level Estimated
09:46AM 42.3146 18.8165 323° Northwest  Level Estimated
09:47AM 42.3961 18.7331 323° Northwest  Level Estimated
09:48AM 42.4775 18.6494 323° Northwest  Level Estimated
09:49AM 42.5588 18.5655 323° Northwest  Level Estimated
09:50AM 42.6401 18.4814 323° Northwest  Level Estimated
09:51AM 42.7213 18.3971 323° Northwest  Level Estimated
09:52AM 42.8024 18.3125 323° Northwest  Level Estimated
09:53AM 42.8835 18.2278 323° Northwest  Level Estimated
09:54AM 42.9645 18.1428 322° Northwest  Level Estimated
09:55AM 43.0455 18.0576 322° Northwest  Level Estimated
09:56AM 43.1264 17.9721 322° Northwest  Level Estimated
09:57AM 43.2072 17.8864 322° Northwest  Level Estimated
09:58AM 43.2880 17.8005 322° Northwest  Level Estimated
09:59AM 43.3687 17.7144 322° Northwest  Level Estimated
10:00AM 43.4493 17.6280 322° Northwest  Level Estimated
10:01AM 43.5299 17.5415 322° Northwest  Level Estimated
10:02AM 43.6104 17.4546 322° Northwest  Level Estimated
10:03AM 43.6908 17.3676 322° Northwest  Level Estimated
10:04AM 43.7712 17.2803 322° Northwest  Level Estimated
10:05AM 43.8515 17.1928 322° Northwest  Level Estimated
10:06AM 43.9318 17.1050 322° Northwest  Level Estimated
10:07AM 44.0120 17.0170 322° Northwest  Level Estimated
10:08AM 44.0921 16.9288 322° Northwest  Level Estimated
10:09AM 44.1721 16.8403 322° Northwest  Level Estimated
10:10AM 44.2521 16.7516 322° Northwest  Level Estimated
10:11AM 44.3320 16.6627 321° Northwest  Level Estimated
10:12AM 44.4118 16.5735 321° Northwest  Level Estimated
10:13AM 44.4916 16.4841 321° Northwest  Level Estimated
10:14AM 44.5713 16.3944 321° Northwest  Level Estimated
10:15AM 44.6509 16.3044 321° Northwest  Level Estimated
10:16AM 44.7304 16.2143 321° Northwest  Level Estimated
10:17AM 44.8099 16.1238 321° Northwest  Level Estimated
10:18AM 44.8893 16.0332 321° Northwest  Level Estimated
10:19AM 44.9687 15.9423 321° Northwest  Level Estimated
10:20AM 45.0479 15.8511 321° Northwest  Level Estimated
10:21AM 45.1271 15.7597 321° Northwest  Level Estimated
10:22AM 45.2062 15.6680 321° Northwest  Level Estimated
10:23AM 45.2853 15.5760 321° Northwest  Level Estimated
10:24AM 45.3642 15.4838 321° Northwest  Level Estimated
10:25AM 45.4431 15.3914 321° Northwest  Level Estimated
10:26AM 45.5220 15.2987 321° Northwest  Level Estimated
10:27AM 45.6007 15.2057 320° Northwest  Level Estimated
10:28AM 45.6794 15.1125 320° Northwest  Level Estimated
10:29AM 45.7580 15.0190 320° Northwest  Level Estimated
10:30AM 45.8365 14.9252 320° Northwest  Level Estimated
10:31AM 45.9149 14.8312 320° Northwest  Level Estimated
10:32AM 45.9933 14.7369 320° Northwest  Level Estimated
10:33AM 46.0716 14.6424 320° Northwest  Level Estimated
10:34AM 46.1498 14.5475 320° Northwest  Level Estimated
10:35AM 46.2237 14.4576 320° Northwest  Level Estimated
10:36AM 46.2237 14.4576 170° South  Level Estimated
10:37AM 46.2237 14.4576 170° South  Level Estimated
10:38AM 46.2237 14.4576 170° South  Level Estimated
10:39AM 46.2237 14.4576 170° South  Level Estimated
10:40AM 46.2237 14.4576 170° South  Level Estimated
10:41AM 46.2237 14.4576 170° South  Level Estimated
10:42AM 46.2237 14.4576 170° South  Level Estimated
10:43AM 46.2237 14.4576 170° South  Level Estimated
10:44AM 46.2237 14.4576 170° South  Level Estimated
10:45AM 46.2237 14.4576 170° South  Level Estimated
10:46AM 46.2237 14.4576 170° South  Level Estimated
10:47AM 46.2237 14.4576 170° South  Level Estimated